Kaktovik, AK

5:46 PM AKDT on July 06, 2015 (GMT -0800)
Barter Island LRRS | | Change Station
CLOSE
Current Station
Airport
Location: Barter Island,
Elevation: 7 ft
Nearby Weather Stations

Elev 7 ft 70.13 °N, 143.58 °W | Updated 13 days ago

Clear
Clear
52 °F
Feels Like 52 °F
N
14
Wind Variable Wind from East
Gusts mph

Today
High -- | Low -- °F
--% Chance of Precip.
Yesterday
High -- | Low -- °F
Precip. -- in
2:00 PM 2:00 PM
Waning Gibbous, 70% visible
Pressure 29.91 in
Visibility 1.0 miles
Clouds Overcast 300 ft
Dew Point 42 °F
Humidity 67%
Rainfall 0.00 in
Snow Depth Not available.
UV 1 out of 12
Pollen Not available.
Air Quality Not available.
Flu Activity Not available.
METAR PABA 231723Z 00000KT 1SM OVC003 01/00 A2991 RMK VIA FONE

More Conditions Fewer Conditions

Pressure 29.91 in
Visibility 1.0 miles
Clouds Overcast 300 ft
Dew Point 42 °F
Humidity 67%
Rainfall 0.00 in
Snow Depth Not available.
UV 1 out of 12
Pollen Not available.
Air Quality Not available.
Flu Activity Not available.
METAR PABA 231723Z 00000KT 1SM OVC003 01/00 A2991 RMK VIA FONE

More Conditions Fewer Conditions

10-Day Weather Forecast

×

Almanac

Astronomy

Jul. 06, 2015 Rise Set
Actual Time
Civil Twilight
Nautical Twilight
Astronomical Twilight
Moon
Length of Visible Light
Length of Day
Tomorrow will be .
, % of the Moon is Illuminated

Today's Extremes

State Highs State Lows

Community

WunderPhotos

Upload Photos

1,835,692 photos uploaded!

WunderBlogs® & News

Nearby

Air Quality

  Air Quality AQ Index Pollutant
Not available.

Snow Depth

Station Depth Elevation

Earthquake Activity

City Distance Mag. Time & Date
Minimum magnitude displayed is 2.5.

Coastal Water Temperatures

Place Temperature

Stations

Nearby Weather Stations

Station Location Temp. Windchill Dew Point Humidity Wind Precip. Elev Updated Type